sensor_id;sensor_type;location;lat;lon;timestamp;temperature;humidity
24326;DHT22;12448;45.532;5.290;2022-08-21T00:01:30;20.40;72.00
24326;DHT22;12448;45.532;5.290;2022-08-21T00:04:22;20.30;72.10
24326;DHT22;12448;45.532;5.290;2022-08-21T00:06:50;20.20;72.50
24326;DHT22;12448;45.532;5.290;2022-08-21T00:15:43;20.00;73.60
24326;DHT22;12448;45.532;5.290;2022-08-21T00:18:53;19.90;73.90
24326;DHT22;12448;45.532;5.290;2022-08-21T00:22:03;19.90;74.10
24326;DHT22;12448;45.532;5.290;2022-08-21T00:24:49;19.80;74.20
24326;DHT22;12448;45.532;5.290;2022-08-21T00:34:24;19.70;74.10
24326;DHT22;12448;45.532;5.290;2022-08-21T00:40:35;19.70;74.20
24326;DHT22;12448;45.532;5.290;2022-08-21T00:46:45;19.70;74.30
24326;DHT22;12448;45.532;5.290;2022-08-21T00:49:12;19.70;74.20
24326;DHT22;12448;45.532;5.290;2022-08-21T00:51:51;19.70;74.10
24326;DHT22;12448;45.532;5.290;2022-08-21T00:54:24;19.60;73.90
24326;DHT22;12448;45.532;5.290;2022-08-21T00:57:24;19.60;74.10
24326;DHT22;12448;45.532;5.290;2022-08-21T01:00:05;19.70;74.00
24326;DHT22;12448;45.532;5.290;2022-08-21T01:03:14;19.60;73.50
24326;DHT22;12448;45.532;5.290;2022-08-21T01:05:44;19.70;73.30
24326;DHT22;12448;45.532;5.290;2022-08-21T01:08:12;19.60;73.10
24326;DHT22;12448;45.532;5.290;2022-08-21T01:10:39;19.60;73.20
24326;DHT22;12448;45.532;5.290;2022-08-21T01:13:16;19.70;73.20
24326;DHT22;12448;45.532;5.290;2022-08-21T01:15:45;19.70;72.80
24326;DHT22;12448;45.532;5.290;2022-08-21T01:18:12;19.80;72.20
24326;DHT22;12448;45.532;5.290;2022-08-21T01:24:01;19.90;72.10
24326;DHT22;12448;45.532;5.290;2022-08-21T01:34:16;20.00;71.70
24326;DHT22;12448;45.532;5.290;2022-08-21T01:37:24;20.10;71.90
24326;DHT22;12448;45.532;5.290;2022-08-21T01:40:12;20.20;71.50
24326;DHT22;12448;45.532;5.290;2022-08-21T01:43:13;20.10;71.50
24326;DHT22;12448;45.532;5.290;2022-08-21T01:45:51;20.00;71.80
24326;DHT22;12448;45.532;5.290;2022-08-21T01:48:46;20.00;72.50
24326;DHT22;12448;45.532;5.290;2022-08-21T01:51:31;20.10;72.40
24326;DHT22;12448;45.532;5.290;2022-08-21T01:53:57;20.00;72.20
24326;DHT22;12448;45.532;5.290;2022-08-21T01:59:50;20.00;73.20
24326;DHT22;12448;45.532;5.290;2022-08-21T02:02:16;20.10;72.60
24326;DHT22;12448;45.532;5.290;2022-08-21T02:04:45;20.10;72.90
24326;DHT22;12448;45.532;5.290;2022-08-21T02:10:55;20.20;73.40
24326;DHT22;12448;45.532;5.290;2022-08-21T02:13:21;20.10;73.50
24326;DHT22;12448;45.532;5.290;2022-08-21T02:19:51;20.20;74.00
24326;DHT22;12448;45.532;5.290;2022-08-21T02:26:21;20.00;73.50
24326;DHT22;12448;45.532;5.290;2022-08-21T02:28:43;20.00;74.10
24326;DHT22;12448;45.532;5.290;2022-08-21T02:31:17;20.00;74.10
24326;DHT22;12448;45.532;5.290;2022-08-21T02:34:26;20.00;73.80
24326;DHT22;12448;45.532;5.290;2022-08-21T02:37:04;20.00;73.20
24326;DHT22;12448;45.532;5.290;2022-08-21T02:39:45;20.00;73.40
24326;DHT22;12448;45.532;5.290;2022-08-21T02:42:14;19.90;73.60
24326;DHT22;12448;45.532;5.290;2022-08-21T02:44:40;19.70;73.60
24326;DHT22;12448;45.532;5.290;2022-08-21T02:47:05;19.60;74.20
24326;DHT22;12448;45.532;5.290;2022-08-21T02:49:34;19.50;74.70
24326;DHT22;12448;45.532;5.290;2022-08-21T02:52:18;19.50;75.30
24326;DHT22;12448;45.532;5.290;2022-08-21T02:54:44;19.60;75.50
24326;DHT22;12448;45.532;5.290;2022-08-21T02:57:10;19.60;75.60
24326;DHT22;12448;45.532;5.290;2022-08-21T03:02:54;19.60;75.00
24326;DHT22;12448;45.532;5.290;2022-08-21T03:05:21;19.50;74.90
24326;DHT22;12448;45.532;5.290;2022-08-21T03:08:25;19.40;75.20
24326;DHT22;12448;45.532;5.290;2022-08-21T03:11:55;19.20;75.20
24326;DHT22;12448;45.532;5.290;2022-08-21T03:14:28;18.90;75.70
24326;DHT22;12448;45.532;5.290;2022-08-21T03:17:01;18.80;76.20
24326;DHT22;12448;45.532;5.290;2022-08-21T03:22:51;18.60;77.00
24326;DHT22;12448;45.532;5.290;2022-08-21T03:25:52;18.50;77.50
24326;DHT22;12448;45.532;5.290;2022-08-21T03:32:01;18.50;77.40
24326;DHT22;12448;45.532;5.290;2022-08-21T03:34:39;18.70;77.50
24326;DHT22;12448;45.532;5.290;2022-08-21T03:37:27;18.70;77.80
24326;DHT22;12448;45.532;5.290;2022-08-21T03:39:53;18.90;77.60
24326;DHT22;12448;45.532;5.290;2022-08-21T03:42:26;18.90;76.90
24326;DHT22;12448;45.532;5.290;2022-08-21T03:45:19;18.90;76.50
24326;DHT22;12448;45.532;5.290;2022-08-21T03:48:07;18.90;76.40
24326;DHT22;12448;45.532;5.290;2022-08-21T03:50:38;18.80;76.50
24326;DHT22;12448;45.532;5.290;2022-08-21T03:53:11;18.90;76.80
24326;DHT22;12448;45.532;5.290;2022-08-21T03:55:47;18.90;76.70
24326;DHT22;12448;45.532;5.290;2022-08-21T03:58:14;18.90;76.60
24326;DHT22;12448;45.532;5.290;2022-08-21T04:00:43;18.90;76.20
24326;DHT22;12448;45.532;5.290;2022-08-21T04:10:20;18.40;76.90
24326;DHT22;12448;45.532;5.290;2022-08-21T04:16:04;18.30;78.10
24326;DHT22;12448;45.532;5.290;2022-08-21T04:18:35;18.40;78.10
24326;DHT22;12448;45.532;5.290;2022-08-21T04:24:03;18.50;77.70
24326;DHT22;12448;45.532;5.290;2022-08-21T04:33:31;18.70;76.80
24326;DHT22;12448;45.532;5.290;2022-08-21T04:36:03;18.60;76.60
24326;DHT22;12448;45.532;5.290;2022-08-21T04:38:28;18.50;76.60
24326;DHT22;12448;45.532;5.290;2022-08-21T04:40:56;18.50;77.10
24326;DHT22;12448;45.532;5.290;2022-08-21T04:43:22;18.50;77.40
24326;DHT22;12448;45.532;5.290;2022-08-21T04:45:49;18.50;77.40
24326;DHT22;12448;45.532;5.290;2022-08-21T04:48:18;18.60;77.20
24326;DHT22;12448;45.532;5.290;2022-08-21T04:54:06;18.60;76.80
24326;DHT22;12448;45.532;5.290;2022-08-21T04:56:45;18.60;76.90
24326;DHT22;12448;45.532;5.290;2022-08-21T04:59:24;18.60;76.60
24326;DHT22;12448;45.532;5.290;2022-08-21T05:02:01;18.60;76.70
24326;DHT22;12448;45.532;5.290;2022-08-21T05:04:30;18.70;77.00
24326;DHT22;12448;45.532;5.290;2022-08-21T05:13:50;18.70;77.00
24326;DHT22;12448;45.532;5.290;2022-08-21T05:16:27;18.60;77.00
24326;DHT22;12448;45.532;5.290;2022-08-21T05:21:47;18.60;76.00
24326;DHT22;12448;45.532;5.290;2022-08-21T05:24:37;18.70;76.10
24326;DHT22;12448;45.532;5.290;2022-08-21T05:27:04;18.70;76.20
24326;DHT22;12448;45.532;5.290;2022-08-21T05:29:32;18.80;76.30
24326;DHT22;12448;45.532;5.290;2022-08-21T05:31:58;18.80;75.80
24326;DHT22;12448;45.532;5.290;2022-08-21T05:34:45;18.50;75.10
24326;DHT22;12448;45.532;5.290;2022-08-21T05:40:17;18.60;76.00
24326;DHT22;12448;45.532;5.290;2022-08-21T05:42:54;18.70;76.20
24326;DHT22;12448;45.532;5.290;2022-08-21T05:45:40;18.80;76.60
24326;DHT22;12448;45.532;5.290;2022-08-21T05:52:10;18.80;75.40
24326;DHT22;12448;45.532;5.290;2022-08-21T05:57:56;18.80;75.00
24326;DHT22;12448;45.532;5.290;2022-08-21T06:00:22;18.70;75.80
24326;DHT22;12448;45.532;5.290;2022-08-21T06:02:49;18.50;76.00
24326;DHT22;12448;45.532;5.290;2022-08-21T06:05:36;18.50;76.10
24326;DHT22;12448;45.532;5.290;2022-08-21T06:08:02;18.40;76.40
24326;DHT22;12448;45.532;5.290;2022-08-21T06:10:47;18.30;76.30
24326;DHT22;12448;45.532;5.290;2022-08-21T06:13:18;18.40;76.70
24326;DHT22;12448;45.532;5.290;2022-08-21T06:19:01;18.30;76.60
24326;DHT22;12448;45.532;5.290;2022-08-21T06:21:30;18.30;76.20
24326;DHT22;12448;45.532;5.290;2022-08-21T06:26:40;18.40;76.90
24326;DHT22;12448;45.532;5.290;2022-08-21T06:29:06;18.40;76.70
24326;DHT22;12448;45.532;5.290;2022-08-21T06:31:32;18.50;76.70
24326;DHT22;12448;45.532;5.290;2022-08-21T06:34:20;18.60;76.60
24326;DHT22;12448;45.532;5.290;2022-08-21T06:36:46;18.70;75.80
24326;DHT22;12448;45.532;5.290;2022-08-21T06:39:23;18.70;75.50
24326;DHT22;12448;45.532;5.290;2022-08-21T06:41:49;18.70;75.80
24326;DHT22;12448;45.532;5.290;2022-08-21T06:44:16;18.80;75.80
24326;DHT22;12448;45.532;5.290;2022-08-21T06:46:48;18.70;75.70
24326;DHT22;12448;45.532;5.290;2022-08-21T06:49:16;18.70;75.40
24326;DHT22;12448;45.532;5.290;2022-08-21T06:52:20;18.70;75.70
24326;DHT22;12448;45.532;5.290;2022-08-21T06:54:55;18.90;75.80
24326;DHT22;12448;45.532;5.290;2022-08-21T06:57:39;18.90;75.80
24326;DHT22;12448;45.532;5.290;2022-08-21T07:00:08;18.90;75.60
24326;DHT22;12448;45.532;5.290;2022-08-21T07:02:35;18.90;75.70
24326;DHT22;12448;45.532;5.290;2022-08-21T07:05:30;19.10;75.50
24326;DHT22;12448;45.532;5.290;2022-08-21T07:07:56;19.20;75.30
24326;DHT22;12448;45.532;5.290;2022-08-21T07:10:26;19.20;75.50
24326;DHT22;12448;45.532;5.290;2022-08-21T07:13:06;19.20;75.40
24326;DHT22;12448;45.532;5.290;2022-08-21T07:15:34;19.20;75.50
24326;DHT22;12448;45.532;5.290;2022-08-21T07:18:00;19.30;75.80
24326;DHT22;12448;45.532;5.290;2022-08-21T07:20:27;19.20;75.50
24326;DHT22;12448;45.532;5.290;2022-08-21T07:22:54;18.70;76.00
24326;DHT22;12448;45.532;5.290;2022-08-21T07:25:20;19.20;76.50
24326;DHT22;12448;45.532;5.290;2022-08-21T07:28:52;19.30;76.50
24326;DHT22;12448;45.532;5.290;2022-08-21T07:31:24;19.30;76.40
24326;DHT22;12448;45.532;5.290;2022-08-21T07:34:16;19.40;76.70
24326;DHT22;12448;45.532;5.290;2022-08-21T07:36:42;19.50;76.80
24326;DHT22;12448;45.532;5.290;2022-08-21T07:39:34;19.60;76.60
24326;DHT22;12448;45.532;5.290;2022-08-21T07:41:59;19.70;77.20
24326;DHT22;12448;45.532;5.290;2022-08-21T07:44:28;19.70;77.60
24326;DHT22;12448;45.532;5.290;2022-08-21T07:46:57;19.80;76.70
24326;DHT22;12448;45.532;5.290;2022-08-21T07:49:23;19.90;76.70
24326;DHT22;12448;45.532;5.290;2022-08-21T07:51:51;19.90;76.80
24326;DHT22;12448;45.532;5.290;2022-08-21T07:54:17;19.90;76.80
24326;DHT22;12448;45.532;5.290;2022-08-21T07:56:43;19.90;77.00
24326;DHT22;12448;45.532;5.290;2022-08-21T07:59:12;20.00;77.20
24326;DHT22;12448;45.532;5.290;2022-08-21T08:01:41;20.10;77.20
24326;DHT22;12448;45.532;5.290;2022-08-21T08:04:06;20.10;77.00
24326;DHT22;12448;45.532;5.290;2022-08-21T08:06:32;20.20;77.50
24326;DHT22;12448;45.532;5.290;2022-08-21T08:11:45;20.20;78.10
24326;DHT22;12448;45.532;5.290;2022-08-21T08:14:11;20.10;77.50
24326;DHT22;12448;45.532;5.290;2022-08-21T08:16:52;20.20;77.50
24326;DHT22;12448;45.532;5.290;2022-08-21T08:19:21;20.20;77.40
24326;DHT22;12448;45.532;5.290;2022-08-21T08:22:11;20.20;77.20
24326;DHT22;12448;45.532;5.290;2022-08-21T08:24:39;20.20;76.60
24326;DHT22;12448;45.532;5.290;2022-08-21T08:27:05;20.30;76.90
24326;DHT22;12448;45.532;5.290;2022-08-21T08:29:31;20.30;77.20
24326;DHT22;12448;45.532;5.290;2022-08-21T08:31:56;20.40;77.20
24326;DHT22;12448;45.532;5.290;2022-08-21T08:34:23;20.50;77.10
24326;DHT22;12448;45.532;5.290;2022-08-21T08:36:48;20.60;77.00
24326;DHT22;12448;45.532;5.290;2022-08-21T08:39:14;20.70;76.70
24326;DHT22;12448;45.532;5.290;2022-08-21T08:41:41;20.70;76.70
24326;DHT22;12448;45.532;5.290;2022-08-21T08:44:08;20.80;76.20
24326;DHT22;12448;45.532;5.290;2022-08-21T08:46:44;20.80;75.90
24326;DHT22;12448;45.532;5.290;2022-08-21T08:54:43;21.00;75.90
24326;DHT22;12448;45.532;5.290;2022-08-21T08:57:16;21.10;75.90
24326;DHT22;12448;45.532;5.290;2022-08-21T08:59:46;21.00;74.70
24326;DHT22;12448;45.532;5.290;2022-08-21T09:02:14;21.00;74.70
24326;DHT22;12448;45.532;5.290;2022-08-21T09:04:41;21.00;74.40
24326;DHT22;12448;45.532;5.290;2022-08-21T09:10:19;21.10;74.30
24326;DHT22;12448;45.532;5.290;2022-08-21T09:23:36;21.40;74.20
24326;DHT22;12448;45.532;5.290;2022-08-21T09:26:52;21.50;73.70
24326;DHT22;12448;45.532;5.290;2022-08-21T09:29:53;21.50;73.60
24326;DHT22;12448;45.532;5.290;2022-08-21T09:39:29;21.60;72.90
24326;DHT22;12448;45.532;5.290;2022-08-21T09:48:40;21.70;72.10
24326;DHT22;12448;45.532;5.290;2022-08-21T09:51:18;21.60;71.60
24326;DHT22;12448;45.532;5.290;2022-08-21T09:53:52;21.50;72.80
24326;DHT22;12448;45.532;5.290;2022-08-21T09:56:58;21.70;72.10
24326;DHT22;12448;45.532;5.290;2022-08-21T09:59:47;21.80;71.20
24326;DHT22;12448;45.532;5.290;2022-08-21T10:02:21;21.80;70.90
24326;DHT22;12448;45.532;5.290;2022-08-21T10:04:55;21.90;70.80
24326;DHT22;12448;45.532;5.290;2022-08-21T10:07:29;22.10;71.10
24326;DHT22;12448;45.532;5.290;2022-08-21T10:10:15;22.10;69.00
24326;DHT22;12448;45.532;5.290;2022-08-21T10:21:10;22.30;67.50
24326;DHT22;12448;45.532;5.290;2022-08-21T10:29:02;22.50;67.20
24326;DHT22;12448;45.532;5.290;2022-08-21T10:34:36;22.10;64.20
24326;DHT22;12448;45.532;5.290;2022-08-21T10:40:19;22.70;64.60
24326;DHT22;12448;45.532;5.290;2022-08-21T10:46:03;23.20;64.40
24326;DHT22;12448;45.532;5.290;2022-08-21T10:48:39;22.90;62.50
24326;DHT22;12448;45.532;5.290;2022-08-21T10:56:30;23.00;62.10
24326;DHT22;12448;45.532;5.290;2022-08-21T11:04:19;23.30;61.80
24326;DHT22;12448;45.532;5.290;2022-08-21T11:07:04;23.30;61.70
24326;DHT22;12448;45.532;5.290;2022-08-21T11:09:31;23.30;61.70
24326;DHT22;12448;45.532;5.290;2022-08-21T11:14:36;23.40;59.80
24326;DHT22;12448;45.532;5.290;2022-08-21T11:17:11;23.40;59.80
24326;DHT22;12448;45.532;5.290;2022-08-21T11:20:06;23.40;59.50
24326;DHT22;12448;45.532;5.290;2022-08-21T11:22:56;23.50;59.30
24326;DHT22;12448;45.532;5.290;2022-08-21T11:25:30;23.50;59.90
24326;DHT22;12448;45.532;5.290;2022-08-21T11:28:20;23.50;59.80
24326;DHT22;12448;45.532;5.290;2022-08-21T11:33:57;23.60;56.80
24326;DHT22;12448;45.532;5.290;2022-08-21T11:39:40;23.70;58.00
24326;DHT22;12448;45.532;5.290;2022-08-21T11:42:28;23.70;58.00
24326;DHT22;12448;45.532;5.290;2022-08-21T11:50:41;23.80;57.40
24326;DHT22;12448;45.532;5.290;2022-08-21T11:53:26;23.70;56.50
24326;DHT22;12448;45.532;5.290;2022-08-21T11:55:56;23.80;56.80
24326;DHT22;12448;45.532;5.290;2022-08-21T12:01:16;24.20;57.90
24326;DHT22;12448;45.532;5.290;2022-08-21T12:04:06;23.90;57.00
24326;DHT22;12448;45.532;5.290;2022-08-21T12:06:36;24.10;57.00
24326;DHT22;12448;45.532;5.290;2022-08-21T12:09:08;24.10;57.40
24326;DHT22;12448;45.532;5.290;2022-08-21T12:11:49;24.10;55.90
24326;DHT22;12448;45.532;5.290;2022-08-21T12:14:17;24.10;56.10
24326;DHT22;12448;45.532;5.290;2022-08-21T12:16:46;24.20;56.60
24326;DHT22;12448;45.532;5.290;2022-08-21T12:19:21;24.10;56.30
24326;DHT22;12448;45.532;5.290;2022-08-21T12:24:38;24.10;56.70
24326;DHT22;12448;45.532;5.290;2022-08-21T12:29:50;24.20;57.60
24326;DHT22;12448;45.532;5.290;2022-08-21T12:34:51;24.40;58.50
24326;DHT22;12448;45.532;5.290;2022-08-21T12:37:41;24.50;56.10
24326;DHT22;12448;45.532;5.290;2022-08-21T12:40:22;24.60;55.30
24326;DHT22;12448;45.532;5.290;2022-08-21T12:42:52;24.60;56.20
24326;DHT22;12448;45.532;5.290;2022-08-21T12:45:26;24.70;55.70
24326;DHT22;12448;45.532;5.290;2022-08-21T12:47:57;24.80;55.90
24326;DHT22;12448;45.532;5.290;2022-08-21T12:56:13;24.90;54.80
24326;DHT22;12448;45.532;5.290;2022-08-21T12:58:51;25.00;54.40
24326;DHT22;12448;45.532;5.290;2022-08-21T13:01:24;25.00;54.10
24326;DHT22;12448;45.532;5.290;2022-08-21T13:03:53;24.80;54.60
24326;DHT22;12448;45.532;5.290;2022-08-21T13:06:22;24.90;55.40
24326;DHT22;12448;45.532;5.290;2022-08-21T13:08:55;24.80;55.50
24326;DHT22;12448;45.532;5.290;2022-08-21T13:11:23;24.80;54.50
24326;DHT22;12448;45.532;5.290;2022-08-21T13:13:51;24.80;54.30
24326;DHT22;12448;45.532;5.290;2022-08-21T13:16:23;24.90;55.00
24326;DHT22;12448;45.532;5.290;2022-08-21T13:21:32;24.90;54.80
24326;DHT22;12448;45.532;5.290;2022-08-21T13:24:18;25.00;55.30
24326;DHT22;12448;45.532;5.290;2022-08-21T13:26:44;25.10;54.50
24326;DHT22;12448;45.532;5.290;2022-08-21T13:29:11;25.10;53.70
24326;DHT22;12448;45.532;5.290;2022-08-21T13:31:39;25.20;52.60
24326;DHT22;12448;45.532;5.290;2022-08-21T13:34:06;25.20;52.60
24326;DHT22;12448;45.532;5.290;2022-08-21T13:36:37;25.10;52.10
24326;DHT22;12448;45.532;5.290;2022-08-21T13:39:07;25.10;53.00
24326;DHT22;12448;45.532;5.290;2022-08-21T13:41:35;25.10;52.10
24326;DHT22;12448;45.532;5.290;2022-08-21T13:44:44;25.30;54.00
24326;DHT22;12448;45.532;5.290;2022-08-21T13:47:10;25.50;52.90
24326;DHT22;12448;45.532;5.290;2022-08-21T13:49:39;25.50;51.90
24326;DHT22;12448;45.532;5.290;2022-08-21T13:52:18;25.60;51.60
24326;DHT22;12448;45.532;5.290;2022-08-21T13:54:53;25.60;51.40
24326;DHT22;12448;45.532;5.290;2022-08-21T13:59:51;25.70;51.10
24326;DHT22;12448;45.532;5.290;2022-08-21T14:02:22;25.80;51.50
24326;DHT22;12448;45.532;5.290;2022-08-21T14:04:57;25.80;52.00
24326;DHT22;12448;45.532;5.290;2022-08-21T14:07:38;25.90;50.70
24326;DHT22;12448;45.532;5.290;2022-08-21T14:10:07;25.80;50.50
24326;DHT22;12448;45.532;5.290;2022-08-21T14:12:41;25.80;51.30
24326;DHT22;12448;45.532;5.290;2022-08-21T14:15:09;25.60;50.50
24326;DHT22;12448;45.532;5.290;2022-08-21T14:17:38;25.60;51.40
24326;DHT22;12448;45.532;5.290;2022-08-21T14:20:10;25.60;50.40
24326;DHT22;12448;45.532;5.290;2022-08-21T14:22:44;25.30;50.50
24326;DHT22;12448;45.532;5.290;2022-08-21T14:25:29;25.30;51.50
24326;DHT22;12448;45.532;5.290;2022-08-21T14:28:02;25.20;50.60
24326;DHT22;12448;45.532;5.290;2022-08-21T14:30:37;25.30;50.70
24326;DHT22;12448;45.532;5.290;2022-08-21T14:33:07;25.40;49.90
24326;DHT22;12448;45.532;5.290;2022-08-21T14:35:34;25.40;50.20
24326;DHT22;12448;45.532;5.290;2022-08-21T14:38:00;25.40;50.30
24326;DHT22;12448;45.532;5.290;2022-08-21T14:40:26;25.60;51.20
24326;DHT22;12448;45.532;5.290;2022-08-21T14:42:53;25.60;50.70
24326;DHT22;12448;45.532;5.290;2022-08-21T14:45:26;25.60;49.80
24326;DHT22;12448;45.532;5.290;2022-08-21T14:47:53;25.60;49.60
24326;DHT22;12448;45.532;5.290;2022-08-21T14:50:19;25.50;49.20
24326;DHT22;12448;45.532;5.290;2022-08-21T14:52:44;25.30;48.30
24326;DHT22;12448;45.532;5.290;2022-08-21T14:55:12;25.30;48.40
24326;DHT22;12448;45.532;5.290;2022-08-21T14:57:47;25.10;47.90
24326;DHT22;12448;45.532;5.290;2022-08-21T15:00:16;25.00;47.80
24326;DHT22;12448;45.532;5.290;2022-08-21T15:02:45;24.90;48.20
24326;DHT22;12448;45.532;5.290;2022-08-21T15:05:12;24.80;49.00
24326;DHT22;12448;45.532;5.290;2022-08-21T15:07:38;24.80;48.90
24326;DHT22;12448;45.532;5.290;2022-08-21T15:10:05;24.70;48.10
24326;DHT22;12448;45.532;5.290;2022-08-21T15:12:31;24.70;47.50
24326;DHT22;12448;45.532;5.290;2022-08-21T15:14:57;24.60;47.80
24326;DHT22;12448;45.532;5.290;2022-08-21T15:17:23;24.90;46.70
24326;DHT22;12448;45.532;5.290;2022-08-21T15:19:49;24.60;47.20
24326;DHT22;12448;45.532;5.290;2022-08-21T15:22:14;24.60;47.10
24326;DHT22;12448;45.532;5.290;2022-08-21T15:24:40;24.60;47.40
24326;DHT22;12448;45.532;5.290;2022-08-21T15:27:07;24.70;47.30
24326;DHT22;12448;45.532;5.290;2022-08-21T15:29:34;24.70;47.70
24326;DHT22;12448;45.532;5.290;2022-08-21T15:32:14;24.70;47.40
24326;DHT22;12448;45.532;5.290;2022-08-21T15:34:40;24.70;46.80
24326;DHT22;12448;45.532;5.290;2022-08-21T15:37:06;24.60;46.90
24326;DHT22;12448;45.532;5.290;2022-08-21T15:39:34;24.60;47.00
24326;DHT22;12448;45.532;5.290;2022-08-21T15:41:59;24.70;47.30
24326;DHT22;12448;45.532;5.290;2022-08-21T15:44:26;24.60;47.10
24326;DHT22;12448;45.532;5.290;2022-08-21T15:46:52;24.70;47.70
24326;DHT22;12448;45.532;5.290;2022-08-21T15:49:18;24.60;47.10
24326;DHT22;12448;45.532;5.290;2022-08-21T15:51:44;24.50;46.90
24326;DHT22;12448;45.532;5.290;2022-08-21T15:54:10;24.60;46.90
24326;DHT22;12448;45.532;5.290;2022-08-21T15:56:38;24.60;48.20
24326;DHT22;12448;45.532;5.290;2022-08-21T15:59:07;24.60;47.40
24326;DHT22;12448;45.532;5.290;2022-08-21T16:01:35;24.70;46.90
24326;DHT22;12448;45.532;5.290;2022-08-21T16:04:02;24.70;45.70
24326;DHT22;12448;45.532;5.290;2022-08-21T16:06:28;24.60;45.50
24326;DHT22;12448;45.532;5.290;2022-08-21T16:08:54;24.70;44.90
24326;DHT22;12448;45.532;5.290;2022-08-21T16:11:20;24.80;43.60
24326;DHT22;12448;45.532;5.290;2022-08-21T16:13:46;24.80;43.50
24326;DHT22;12448;45.532;5.290;2022-08-21T16:16:18;25.30;44.60
24326;DHT22;12448;45.532;5.290;2022-08-21T16:18:44;24.90;44.10
24326;DHT22;12448;45.532;5.290;2022-08-21T16:21:10;24.80;43.70
24326;DHT22;12448;45.532;5.290;2022-08-21T16:23:36;24.80;44.40
24326;DHT22;12448;45.532;5.290;2022-08-21T16:26:04;24.90;44.80
24326;DHT22;12448;45.532;5.290;2022-08-21T16:28:31;24.80;43.40
24326;DHT22;12448;45.532;5.290;2022-08-21T16:30:58;24.70;42.70
24326;DHT22;12448;45.532;5.290;2022-08-21T16:33:33;24.70;43.20
24326;DHT22;12448;45.532;5.290;2022-08-21T16:36:00;24.70;43.00
24326;DHT22;12448;45.532;5.290;2022-08-21T16:38:27;24.70;43.30
24326;DHT22;12448;45.532;5.290;2022-08-21T16:40:54;24.70;43.30
24326;DHT22;12448;45.532;5.290;2022-08-21T16:43:25;24.70;43.90
24326;DHT22;12448;45.532;5.290;2022-08-21T16:45:52;24.70;43.60
24326;DHT22;12448;45.532;5.290;2022-08-21T16:48:17;24.60;44.30
24326;DHT22;12448;45.532;5.290;2022-08-21T16:50:43;24.50;44.60
24326;DHT22;12448;45.532;5.290;2022-08-21T16:53:09;24.40;44.40
24326;DHT22;12448;45.532;5.290;2022-08-21T16:55:35;24.40;45.00
24326;DHT22;12448;45.532;5.290;2022-08-21T16:58:03;24.30;44.90
24326;DHT22;12448;45.532;5.290;2022-08-21T17:00:31;24.30;45.20
24326;DHT22;12448;45.532;5.290;2022-08-21T17:02:57;24.30;45.50
24326;DHT22;12448;45.532;5.290;2022-08-21T17:05:22;24.30;45.00
24326;DHT22;12448;45.532;5.290;2022-08-21T17:07:48;24.20;43.50
24326;DHT22;12448;45.532;5.290;2022-08-21T17:10:15;24.20;44.00
24326;DHT22;12448;45.532;5.290;2022-08-21T17:12:44;24.20;44.60
24326;DHT22;12448;45.532;5.290;2022-08-21T17:15:19;24.30;45.40
24326;DHT22;12448;45.532;5.290;2022-08-21T17:17:45;24.30;45.40
24326;DHT22;12448;45.532;5.290;2022-08-21T17:20:11;24.30;45.20
24326;DHT22;12448;45.532;5.290;2022-08-21T17:22:37;24.20;45.60
24326;DHT22;12448;45.532;5.290;2022-08-21T17:25:03;24.20;46.00
24326;DHT22;12448;45.532;5.290;2022-08-21T17:27:29;24.20;46.30
24326;DHT22;12448;45.532;5.290;2022-08-21T17:29:55;24.20;46.80
24326;DHT22;12448;45.532;5.290;2022-08-21T17:32:22;24.20;47.10
24326;DHT22;12448;45.532;5.290;2022-08-21T17:34:48;24.10;47.00
24326;DHT22;12448;45.532;5.290;2022-08-21T17:37:14;24.20;47.30
24326;DHT22;12448;45.532;5.290;2022-08-21T17:39:40;24.30;46.40
24326;DHT22;12448;45.532;5.290;2022-08-21T17:42:09;24.30;46.10
24326;DHT22;12448;45.532;5.290;2022-08-21T17:44:37;24.20;45.70
24326;DHT22;12448;45.532;5.290;2022-08-21T17:47:04;24.20;46.10
24326;DHT22;12448;45.532;5.290;2022-08-21T17:49:31;24.20;46.10
24326;DHT22;12448;45.532;5.290;2022-08-21T17:51:56;24.10;46.40
24326;DHT22;12448;45.532;5.290;2022-08-21T17:54:26;24.00;46.60
24326;DHT22;12448;45.532;5.290;2022-08-21T17:56:53;23.90;46.80
24326;DHT22;12448;45.532;5.290;2022-08-21T17:59:21;23.90;47.20
24326;DHT22;12448;45.532;5.290;2022-08-21T18:01:46;23.80;47.20
24326;DHT22;12448;45.532;5.290;2022-08-21T18:04:13;23.80;47.70
24326;DHT22;12448;45.532;5.290;2022-08-21T18:06:40;23.70;47.70
24326;DHT22;12448;45.532;5.290;2022-08-21T18:09:06;23.60;47.80
24326;DHT22;12448;45.532;5.290;2022-08-21T18:11:33;23.60;48.10
24326;DHT22;12448;45.532;5.290;2022-08-21T18:14:01;23.60;48.40
24326;DHT22;12448;45.532;5.290;2022-08-21T18:16:29;23.60;48.50
24326;DHT22;12448;45.532;5.290;2022-08-21T18:18:55;23.50;48.60
24326;DHT22;12448;45.532;5.290;2022-08-21T18:21:21;23.40;48.70
24326;DHT22;12448;45.532;5.290;2022-08-21T18:23:47;23.40;49.10
24326;DHT22;12448;45.532;5.290;2022-08-21T18:26:20;23.30;49.40
24326;DHT22;12448;45.532;5.290;2022-08-21T18:28:47;23.20;49.70
24326;DHT22;12448;45.532;5.290;2022-08-21T18:31:13;23.20;50.10
24326;DHT22;12448;45.532;5.290;2022-08-21T18:33:39;23.20;50.20
24326;DHT22;12448;45.532;5.290;2022-08-21T18:36:06;23.10;50.00
24326;DHT22;12448;45.532;5.290;2022-08-21T18:38:32;23.00;50.40
24326;DHT22;12448;45.532;5.290;2022-08-21T18:41:00;23.00;50.50
24326;DHT22;12448;45.532;5.290;2022-08-21T18:43:26;22.90;50.40
24326;DHT22;12448;45.532;5.290;2022-08-21T18:45:52;22.90;50.50
24326;DHT22;12448;45.532;5.290;2022-08-21T18:48:18;22.90;50.70
24326;DHT22;12448;45.532;5.290;2022-08-21T18:50:47;22.80;50.80
24326;DHT22;12448;45.532;5.290;2022-08-21T18:53:13;22.90;50.90
24326;DHT22;12448;45.532;5.290;2022-08-21T18:55:41;22.90;50.60
24326;DHT22;12448;45.532;5.290;2022-08-21T18:58:07;22.80;50.60
24326;DHT22;12448;45.532;5.290;2022-08-21T19:00:36;22.80;50.20
24326;DHT22;12448;45.532;5.290;2022-08-21T19:03:10;22.80;50.50
24326;DHT22;12448;45.532;5.290;2022-08-21T19:05:36;22.80;50.50
24326;DHT22;12448;45.532;5.290;2022-08-21T19:08:04;22.80;50.70
24326;DHT22;12448;45.532;5.290;2022-08-21T19:10:30;22.80;50.60
24326;DHT22;12448;45.532;5.290;2022-08-21T19:12:59;22.70;50.40
24326;DHT22;12448;45.532;5.290;2022-08-21T19:15:25;22.70;50.50
24326;DHT22;12448;45.532;5.290;2022-08-21T19:17:51;22.70;50.50
24326;DHT22;12448;45.532;5.290;2022-08-21T19:20:25;22.70;50.30
24326;DHT22;12448;45.532;5.290;2022-08-21T19:22:53;22.70;50.20
24326;DHT22;12448;45.532;5.290;2022-08-21T19:25:20;22.70;50.30
24326;DHT22;12448;45.532;5.290;2022-08-21T19:27:47;22.60;50.20
24326;DHT22;12448;45.532;5.290;2022-08-21T19:30:13;22.60;50.50
24326;DHT22;12448;45.532;5.290;2022-08-21T19:32:42;22.60;50.60
24326;DHT22;12448;45.532;5.290;2022-08-21T19:35:08;22.60;50.60